This is the latest recevied weather packets stored in our database for station/object K1FFK-1. If no packets are shown the sender has not sent any weather packets the latest 10 day(s).
| Time | Temp. | Humidity | Pressure | Rain* | Wind** | Luminosity | Snow |
|---|---|---|---|---|---|---|---|
| 1778012494 | 18.89° C | 48% | 1012.4 hPa | 0 mm | - | - | - |
| 1778011893 | 19.44° C | 48% | 1012.2 hPa | 0 mm | - | - | - |
| 1778011293 | 20° C | 47% | 1012.2 hPa | 0 mm | - | - | - |
| 1778010694 | 19.44° C | 47% | 1012.5 hPa | 0 mm | - | - | - |
| 1778010095 | 19.44° C | 46% | 1012.5 hPa | 0 mm | - | - | - |
| 1778009493 | 18.89° C | 47% | 1012.6 hPa | 0 mm | - | - | - |
| 1778008894 | 18.33° C | 51% | 1012.5 hPa | 0 mm | - | - | - |
| 1778008294 | 18.89° C | 50% | 1012.5 hPa | 0 mm | - | - | - |
| 1778007694 | 18.33° C | 52% | 1012.6 hPa | 0 mm | - | - | - |
| 1778007094 | 18.33° C | 51% | 1012.8 hPa | 0 mm | - | - | - |
| 1778006494 | 18.33° C | 52% | 1012.8 hPa | 0 mm | - | - | - |
| 1778005893 | 18.89° C | 50% | 1012.9 hPa | 0 mm | - | - | - |
| 1778005293 | 18.33° C | 52% | 1013 hPa | 0 mm | - | - | - |
| 1778004694 | 18.33° C | 52% | 1012.6 hPa | 0 mm | - | - | - |
| 1778004094 | 17.78° C | 54% | 1013.4 hPa | 0 mm | - | - | - |
| 1778003493 | 17.78° C | 55% | 1013.5 hPa | 0 mm | - | - | - |
| 1778002894 | 18.89° C | 52% | 1013.5 hPa | 0 mm | - | - | - |
| 1778002293 | 18.89° C | 53% | 1013.5 hPa | 0 mm | - | - | - |
| 1778001693 | 18.89° C | 52% | 1013.6 hPa | 0 mm | - | - | - |
| 1778001094 | 18.89° C | 52% | 1013.5 hPa | 0 mm | - | - | - |
| 1778000493 | 18.89° C | 53% | 1013.6 hPa | 0 mm | - | - | - |
| 1777999894 | 18.89° C | 52% | 1013.3 hPa | 0 mm | - | - | - |
| 1777999294 | 18.89° C | 52% | 1013.7 hPa | 0 mm | - | - | - |
| 1777998694 | 18.33° C | 54% | 1013.9 hPa | 0 mm | - | - | - |
| 1777998094 | 18.33° C | 54% | 1014.1 hPa | 0 mm | - | - | - |
* Rain latest hour (hover to see other rain measurements)
** Current wind speed in m/s (hover to see current wind gust speed)